• Join FlightAware (Why Join?)
  • Login
  • US Flag 
11:44PM EST


 

Airport Tracker/Info


-or-


 

Live Flight TrackerFlight Track Log ✈ EJA673 ✈ 16-Jun-2013 ✈ KSGF - KMCN

Flight Track Log - Related Links

Times and Time Zones

All times are in EDT time to prevent confusion due to time zone crossing. See the EJA673 flight status page for this flight to view local times or setup timezone preferences in your user account.

Time Position Orientation Groundspeed Altitude Reporting Facility
EDT Latitude Longitude Course Direction KTS MPH feet Rate Location/Type
05:18PM 37.1575 -93.3717 144° Southeast 237 273 7,900  Level Kansas City Center
05:19PM 37.1144 -93.3250 139° Southeast 213 245 10,800 2,880 Climbing Kansas City Center
05:20PM 37.0469 -93.2525 139° Southeast 244 281 13,900 3,060 Climbing Kansas City Center
05:21PM 36.9892 -93.1883 138° Southeast 269 310 17,200 2,460 Climbing Kansas City Center
05:22PM 36.9289 -93.1242 140° Southeast 279 321 19,000 840 Climbing Kansas City Center
05:23PM 36.3859 -92.6158 144° Southeast  Level Estimated
05:23PM 36.8333 -93.0739 157° South 362 417 19,000  Level Kansas City Center
05:24PM 36.7250 -93.0442 168° South 391 450 19,000  Level Kansas City Center
05:25PM 36.6189 -93.0142 167° South 391 450 19,000 240 Level Kansas City Center
05:26PM 36.5153 -92.9886 169° South 351 404 19,500 780 Climbing Kansas City Center
05:27PM 36.4197 -92.9647 169° South 348 400 20,700 1,080 Climbing Kansas City Center
05:28PM 36.3692 -92.9550 171° South 359 413 21,000 1,320 Climbing Memphis Center
05:29PM 36.2594 -92.9283 169° South 376 433 22,500 960 Climbing Memphis Center
05:30PM 36.1514 -92.9094 172° South 391 450 23,000 1,260 Climbing Memphis Center
05:31PM 36.0481 -92.8678 162° South 396 456 25,100 1,860 Climbing Memphis Center
05:32PM 35.9664 -92.7756 138° Southeast 380 437 26,800 1,500 Climbing Memphis Center
05:33PM 35.8889 -92.6808 135° Southeast 387 445 28,200 1,200 Climbing Memphis Center
05:34PM 35.8053 -92.5864 137° Southeast 398 458 29,200 1,020 Climbing Memphis Center
05:35PM 35.7214 -92.4844 135° Southeast 416 479 30,300 1,020 Climbing Memphis Center
05:36PM 35.6375 -92.3853 136° Southeast 416 479 31,300 960 Climbing Memphis Center
05:37PM 35.5494 -92.2886 138° Southeast 416 479 32,300 900 Climbing Memphis Center
05:38PM 35.4633 -92.1897 137° Southeast 416 479 33,100 840 Climbing Memphis Center
05:39PM 35.3792 -92.0886 136° Southeast 416 479 34,000 840 Climbing Memphis Center
05:40PM 35.2889 -91.9875 138° Southeast 416 479 34,800 480 Climbing Memphis Center
05:41PM 35.2025 -91.8869 136° Southeast 427 491 35,000 60 Climbing Memphis Center
05:42PM 35.1078 -91.7811 138° Southeast 440 506 35,000  Level Memphis Center
05:43PM 35.0172 -91.6781 137° Southeast 440 506 35,000 300 Level Memphis Center
05:44PM 34.9325 -91.5781 136° Southeast 435 501 35,600 900 Climbing Memphis Center
05:45PM 34.8561 -91.4986 140° Southeast 428 493 36,900 1,200 Climbing Memphis Center
05:46PM 34.7736 -91.4039 137° Southeast 411 473 38,100 1,080 Climbing Memphis Center
05:47PM 34.6886 -91.3092 137° Southeast 411 473 39,100 900 Climbing Memphis Center
05:48PM 34.6039 -91.2125 137° Southeast 419 482 39,900 660 Climbing Memphis Center
05:49PM 34.5169 -91.1158 137° Southeast 424 488 40,500 540 Climbing Memphis Center
05:50PM 34.4256 -91.0144 138° Southeast 437 503 41,000 240 Climbing Memphis Center
05:51PM 34.3258 -90.9056 138° Southeast 448 516 41,000  Level Memphis Center
05:52PM 34.2303 -90.7992 137° Southeast 448 516 41,000  Level Memphis Center
05:53PM 34.1408 -90.6983 137° Southeast 454 522 41,000  Level Memphis Center
05:54PM 34.0472 -90.5978 138° Southeast 449 517 41,100 360 Climbing Memphis Center
05:55PM 33.9578 -90.4975 137° Southeast 439 505 41,800 720 Climbing Memphis Center
05:56PM 33.8681 -90.3997 138° Southeast 439 505 42,600 600 Climbing Memphis Center
05:57PM 33.7886 -90.3122 138° Southeast 434 499 43,000 120 Climbing Memphis Center
05:59PM 33.6028 -90.1078 137° Southeast 446 513 43,000  Level Memphis Center
06:00PM 33.5128 -90.0108 138° Southeast 446 513 43,000  Level Memphis Center
06:01PM 33.4247 -89.9142 137° Southeast 435 501 43,000  Level Memphis Center
06:02PM 33.3367 -89.8178 138° Southeast 435 501 43,000  Level Memphis Center
06:03PM 33.2486 -89.7239 138° Southeast 435 501 43,000  Level Memphis Center
06:04PM 33.1603 -89.6278 138° Southeast 435 501 43,000  Level Memphis Center
06:05PM 33.0742 -89.5367 138° Southeast 430 495 43,000  Level Memphis Center
06:06PM 32.9858 -89.4433 138° Southeast 430 495 43,000  Level Memphis Center
06:07PM 32.8975 -89.3503 138° Southeast 430 495 43,000  Level Memphis Center
06:08PM 32.8111 -89.2597 139° Southeast 425 489 43,000  Level Memphis Center
06:09PM 32.7247 -89.1669 138° Southeast 425 489 43,000  Level Memphis Center
06:10PM 32.6361 -89.0744 139° Southeast 420 483 43,000  Level Memphis Center
06:11PM 32.5494 -88.9819 138° Southeast 420 483 43,000  Level Memphis Center
06:12PM 32.5000 -88.8572 115° Southeast 410 472 43,000  Level Memphis Center
06:13PM 32.4983 -88.7242 91° East 383 441 43,000 -540 Level Memphis Center
06:16PM 32.5269 -88.2933 85° East 444 511 41,000 -540 Descending Atlanta Center
06:17PM 32.5361 -88.1483 86° East 438 504 41,000  Level Atlanta Center
06:18PM 32.5425 -88.0108 87° East 433 498 41,000  Level Atlanta Center
06:19PM 32.5489 -87.8781 87° East 438 504 41,000  Level Atlanta Center
06:20PM 32.5533 -87.7378 88° East 438 504 41,000 -240 Level Atlanta Center
06:21PM 32.5656 -87.5978 84° East 432 497 40,600 -720 Descending Atlanta Center
06:22PM 32.5925 -87.4583 77° East 432 497 39,600 -1,080 Descending Atlanta Center
06:23PM 32.6214 -87.3164 76° East 432 497 38,500 -1,140 Descending Atlanta Center
06:24PM 32.6481 -87.1744 77° East 432 497 37,400 -1,200 Descending Atlanta Center
06:25PM 32.6725 -87.0294 79° East 432 497 36,200 -1,320 Descending Atlanta Center
06:26PM 32.6842 -86.8892 84° East 432 497 34,800 -1,440 Descending Atlanta Center
06:27PM 32.6919 -86.7364 86° East 438 504 33,400 -900 Descending Atlanta Center
06:28PM 32.6886 -86.5958 92° East 438 504 33,000 -240 Descending Atlanta Center
06:29PM 32.6917 -86.4478 89° East 438 504 33,000  Level Atlanta Center
06:30PM 32.6925 -86.2850 90° East 438 504 33,000 -300 Level Atlanta Center
06:31PM 32.6931 -86.1344 90° East 443 510 32,500 -780 Descending Atlanta Center
06:32PM 32.6975 -85.9889 88° East 443 510 31,500 -1,260 Descending Atlanta Center
06:33PM 32.6958 -85.8406 91° East 443 510 30,000 -1,500 Descending Atlanta Center
06:34PM 32.6956 -85.6925 90° East 443 510 28,500 -1,440 Descending Atlanta Center
06:35PM 32.6975 -85.5469 89° East 443 510 27,200 -1,500 Descending Atlanta Center
06:36PM 32.6972 -85.4014 90° East 443 510 25,600 -1,560 Descending Atlanta Center
06:37PM 32.6967 -85.2533 90° East 443 510 24,100 -1,320 Descending Atlanta Center
06:38PM 32.6981 -85.1078 89° East 443 510 23,000 -1,440 Descending Atlanta Center
06:39PM 32.6969 -84.9669 90° East 437 503 21,300 -2,520 Descending Atlanta Center
06:40PM 32.6981 -84.8336 89° East 420 483 18,000 -3,240 Descending Atlanta Center
06:41PM 32.6964 -84.7250 91° East 394 453 14,900 -3,060 Descending Atlanta Center
06:42PM 32.6972 -84.6042 89° East 371 427 11,900 -1,980 Descending Atlanta Center
06:43PM 32.6956 -84.5006 91° East 342 394 11,000 -480 Descending Atlanta Center
06:44PM 32.6958 -84.3844 90° East 336 387 11,000  Level Atlanta Center
06:45PM 32.6961 -84.2633 90° East 347 399 11,000 -300 Level Atlanta Center
06:46PM 32.6964 -84.1400 90° East 359 413 10,400 -1,200 Descending Atlanta Center
06:47PM 32.6964 -84.0461 90° East 337 388 8,600 -2,160 Descending Atlanta Center
06:48PM 32.6964 -83.9550 90° East 295 339 6,100 -2,280 Descending Atlanta Center
06:49PM 32.6961 -83.8661 90° East 270 311 4,100 -1,560 Descending Atlanta Center
06:50PM 32.7022 -83.7822 85° East 259 298 3,000 -600 Descending Atlanta Center
06:51PM 32.7564 -83.7497 27° Northeast 199 229 2,900 -420 Descending Atlanta Center
06:52PM 32.7878 -83.6906 58° Northeast 190 219 2,200 4,020 Descending Atlanta Center
06:53PM 32.8189 -83.6408 53° Northeast 190 219 11,000 8,760 Climbing Atlanta Center
06:55PM 32.6928 -83.6492 90° East  Level Estimated
07:02PM 32.6928 -83.6492 90° East  Level Estimated
07:03PM 32.6928 -83.6492 90° East  Level Estimated